sensor_id;sensor_type;location;lat;lon;timestamp;P1;durP1;ratioP1;P2;durP2;ratioP2
77872;SDS011;67068;52.116;4.440;2023-04-01T00:00:58;11.43;;;2.28;;
77872;SDS011;67068;52.116;4.440;2023-04-01T00:03:24;14.60;;;2.33;;
77872;SDS011;67068;52.116;4.440;2023-04-01T00:05:50;10.13;;;2.28;;
77872;SDS011;67068;52.116;4.440;2023-04-01T00:08:16;11.32;;;2.53;;
77872;SDS011;67068;52.116;4.440;2023-04-01T00:10:41;10.30;;;1.95;;
77872;SDS011;67068;52.116;4.440;2023-04-01T00:13:07;12.75;;;2.70;;
77872;SDS011;67068;52.116;4.440;2023-04-01T00:15:32;11.17;;;2.30;;
77872;SDS011;67068;52.116;4.440;2023-04-01T00:17:57;10.90;;;1.92;;
77872;SDS011;67068;52.116;4.440;2023-04-01T00:20:23;9.38;;;2.28;;
77872;SDS011;67068;52.116;4.440;2023-04-01T00:22:49;11.85;;;1.98;;
77872;SDS011;67068;52.116;4.440;2023-04-01T00:25:14;10.75;;;2.08;;
77872;SDS011;67068;52.116;4.440;2023-04-01T00:27:40;10.43;;;2.00;;
77872;SDS011;67068;52.116;4.440;2023-04-01T00:30:05;9.40;;;2.03;;
77872;SDS011;67068;52.116;4.440;2023-04-01T00:32:31;10.98;;;1.95;;
77872;SDS011;67068;52.116;4.440;2023-04-01T00:34:56;9.07;;;1.83;;
77872;SDS011;67068;52.116;4.440;2023-04-01T00:37:24;12.57;;;2.15;;
77872;SDS011;67068;52.116;4.440;2023-04-01T00:39:49;10.90;;;1.60;;
77872;SDS011;67068;52.116;4.440;2023-04-01T00:42:14;11.43;;;2.30;;
77872;SDS011;67068;52.116;4.440;2023-04-01T00:44:40;10.93;;;2.00;;
77872;SDS011;67068;52.116;4.440;2023-04-01T00:47:05;11.27;;;2.38;;
77872;SDS011;67068;52.116;4.440;2023-04-01T00:49:32;9.10;;;1.88;;
77872;SDS011;67068;52.116;4.440;2023-04-01T00:51:59;11.00;;;2.45;;
77872;SDS011;67068;52.116;4.440;2023-04-01T00:54:25;7.82;;;1.65;;
77872;SDS011;67068;52.116;4.440;2023-04-01T00:56:53;13.05;;;2.20;;
77872;SDS011;67068;52.116;4.440;2023-04-01T00:59:23;10.77;;;2.10;;
77872;SDS011;67068;52.116;4.440;2023-04-01T01:01:49;8.00;;;2.05;;
77872;SDS011;67068;52.116;4.440;2023-04-01T01:04:48;9.68;;;2.15;;
77872;SDS011;67068;52.116;4.440;2023-04-01T01:12:13;10.52;;;2.25;;
77872;SDS011;67068;52.116;4.440;2023-04-01T01:22:27;10.02;;;2.03;;
77872;SDS011;67068;52.116;4.440;2023-04-01T01:25:24;9.57;;;2.00;;
77872;SDS011;67068;52.116;4.440;2023-04-01T01:27:45;10.63;;;1.83;;
77872;SDS011;67068;52.116;4.440;2023-04-01T01:37:36;9.88;;;2.00;;
77872;SDS011;67068;52.116;4.440;2023-04-01T01:40:04;9.10;;;1.98;;
77872;SDS011;67068;52.116;4.440;2023-04-01T01:42:30;9.95;;;1.92;;
77872;SDS011;67068;52.116;4.440;2023-04-01T01:44:56;11.13;;;1.88;;
77872;SDS011;67068;52.116;4.440;2023-04-01T01:47:22;10.32;;;1.65;;
77872;SDS011;67068;52.116;4.440;2023-04-01T01:49:48;9.35;;;2.00;;
77872;SDS011;67068;52.116;4.440;2023-04-01T01:52:14;9.55;;;1.75;;
77872;SDS011;67068;52.116;4.440;2023-04-01T01:54:47;7.78;;;1.50;;
77872;SDS011;67068;52.116;4.440;2023-04-01T01:57:13;9.05;;;1.67;;
77872;SDS011;67068;52.116;4.440;2023-04-01T01:59:38;10.32;;;1.85;;
77872;SDS011;67068;52.116;4.440;2023-04-01T02:02:05;7.43;;;1.70;;
77872;SDS011;67068;52.116;4.440;2023-04-01T02:04:36;9.63;;;2.08;;
77872;SDS011;67068;52.116;4.440;2023-04-01T02:07:04;8.45;;;1.80;;
77872;SDS011;67068;52.116;4.440;2023-04-01T02:09:31;8.93;;;2.05;;
77872;SDS011;67068;52.116;4.440;2023-04-01T02:12:03;6.93;;;1.67;;
77872;SDS011;67068;52.116;4.440;2023-04-01T02:14:30;8.35;;;1.98;;
77872;SDS011;67068;52.116;4.440;2023-04-01T02:17:04;9.02;;;1.80;;
77872;SDS011;67068;52.116;4.440;2023-04-01T02:19:36;8.73;;;1.98;;
77872;SDS011;67068;52.116;4.440;2023-04-01T02:22:03;8.27;;;1.70;;
77872;SDS011;67068;52.116;4.440;2023-04-01T02:24:30;10.45;;;1.70;;
77872;SDS011;67068;52.116;4.440;2023-04-01T02:26:56;7.35;;;1.63;;
77872;SDS011;67068;52.116;4.440;2023-04-01T02:29:22;7.87;;;1.50;;
77872;SDS011;67068;52.116;4.440;2023-04-01T02:31:48;6.78;;;1.50;;
77872;SDS011;67068;52.116;4.440;2023-04-01T02:34:14;7.88;;;2.15;;
77872;SDS011;67068;52.116;4.440;2023-04-01T02:36:40;8.48;;;1.63;;
77872;SDS011;67068;52.116;4.440;2023-04-01T02:39:05;7.90;;;1.92;;
77872;SDS011;67068;52.116;4.440;2023-04-01T02:41:30;9.05;;;1.58;;
77872;SDS011;67068;52.116;4.440;2023-04-01T02:43:56;9.20;;;1.60;;
77872;SDS011;67068;52.116;4.440;2023-04-01T02:46:23;7.63;;;2.13;;
77872;SDS011;67068;52.116;4.440;2023-04-01T02:48:48;9.07;;;1.83;;
77872;SDS011;67068;52.116;4.440;2023-04-01T02:51:14;7.25;;;1.70;;
77872;SDS011;67068;52.116;4.440;2023-04-01T02:53:39;6.47;;;1.50;;
77872;SDS011;67068;52.116;4.440;2023-04-01T02:56:04;7.63;;;1.70;;
77872;SDS011;67068;52.116;4.440;2023-04-01T02:58:30;8.97;;;1.60;;
77872;SDS011;67068;52.116;4.440;2023-04-01T03:00:55;6.63;;;1.50;;
77872;SDS011;67068;52.116;4.440;2023-04-01T03:03:20;9.97;;;2.10;;
77872;SDS011;67068;52.116;4.440;2023-04-01T03:05:45;8.55;;;2.08;;
77872;SDS011;67068;52.116;4.440;2023-04-01T03:08:11;7.13;;;1.43;;
77872;SDS011;67068;52.116;4.440;2023-04-01T03:10:36;7.50;;;1.80;;
77872;SDS011;67068;52.116;4.440;2023-04-01T03:13:02;7.85;;;1.85;;
77872;SDS011;67068;52.116;4.440;2023-04-01T03:15:27;7.37;;;1.63;;
77872;SDS011;67068;52.116;4.440;2023-04-01T03:17:52;7.30;;;1.77;;
77872;SDS011;67068;52.116;4.440;2023-04-01T03:20:17;6.10;;;1.57;;
77872;SDS011;67068;52.116;4.440;2023-04-01T03:22:43;6.43;;;1.40;;
77872;SDS011;67068;52.116;4.440;2023-04-01T03:25:08;9.17;;;2.10;;
77872;SDS011;67068;52.116;4.440;2023-04-01T03:27:34;8.15;;;1.63;;
77872;SDS011;67068;52.116;4.440;2023-04-01T03:30:03;8.18;;;1.80;;
77872;SDS011;67068;52.116;4.440;2023-04-01T03:32:28;8.70;;;1.83;;
77872;SDS011;67068;52.116;4.440;2023-04-01T03:34:54;7.87;;;1.80;;
77872;SDS011;67068;52.116;4.440;2023-04-01T03:37:19;7.40;;;1.70;;
77872;SDS011;67068;52.116;4.440;2023-04-01T03:39:44;7.50;;;2.20;;
77872;SDS011;67068;52.116;4.440;2023-04-01T03:42:12;7.88;;;1.67;;
77872;SDS011;67068;52.116;4.440;2023-04-01T03:44:38;6.45;;;1.40;;
77872;SDS011;67068;52.116;4.440;2023-04-01T03:47:03;5.97;;;1.40;;
77872;SDS011;67068;52.116;4.440;2023-04-01T03:49:28;6.40;;;1.50;;
77872;SDS011;67068;52.116;4.440;2023-04-01T03:51:53;6.83;;;1.70;;
77872;SDS011;67068;52.116;4.440;2023-04-01T03:54:19;6.30;;;1.80;;
77872;SDS011;67068;52.116;4.440;2023-04-01T03:56:45;7.13;;;1.70;;
77872;SDS011;67068;52.116;4.440;2023-04-01T03:59:10;6.50;;;1.50;;
77872;SDS011;67068;52.116;4.440;2023-04-01T04:01:35;7.00;;;1.77;;
77872;SDS011;67068;52.116;4.440;2023-04-01T04:04:01;8.18;;;1.83;;
77872;SDS011;67068;52.116;4.440;2023-04-01T04:06:26;6.40;;;1.67;;
77872;SDS011;67068;52.116;4.440;2023-04-01T04:08:52;9.90;;;2.13;;
77872;SDS011;67068;52.116;4.440;2023-04-01T04:11:18;7.45;;;1.58;;
77872;SDS011;67068;52.116;4.440;2023-04-01T04:13:43;7.85;;;1.80;;
77872;SDS011;67068;52.116;4.440;2023-04-01T04:16:08;7.63;;;2.00;;
77872;SDS011;67068;52.116;4.440;2023-04-01T04:18:35;7.18;;;1.60;;
77872;SDS011;67068;52.116;4.440;2023-04-01T04:21:00;5.40;;;1.48;;
77872;SDS011;67068;52.116;4.440;2023-04-01T04:23:25;8.50;;;1.87;;
77872;SDS011;67068;52.116;4.440;2023-04-01T04:25:57;7.23;;;1.60;;
77872;SDS011;67068;52.116;4.440;2023-04-01T04:28:24;5.78;;;1.30;;
77872;SDS011;67068;52.116;4.440;2023-04-01T04:30:49;6.82;;;1.63;;
77872;SDS011;67068;52.116;4.440;2023-04-01T04:33:14;6.47;;;1.90;;
77872;SDS011;67068;52.116;4.440;2023-04-01T04:35:40;7.53;;;1.80;;
77872;SDS011;67068;52.116;4.440;2023-04-01T04:38:05;7.13;;;1.87;;
77872;SDS011;67068;52.116;4.440;2023-04-01T04:40:30;7.80;;;1.57;;
77872;SDS011;67068;52.116;4.440;2023-04-01T04:42:55;6.03;;;1.63;;
77872;SDS011;67068;52.116;4.440;2023-04-01T04:45:21;6.67;;;2.00;;
77872;SDS011;67068;52.116;4.440;2023-04-01T04:47:46;5.72;;;1.55;;
77872;SDS011;67068;52.116;4.440;2023-04-01T04:50:11;6.90;;;1.80;;
77872;SDS011;67068;52.116;4.440;2023-04-01T04:52:37;6.60;;;1.52;;
77872;SDS011;67068;52.116;4.440;2023-04-01T04:55:03;5.27;;;1.33;;
77872;SDS011;67068;52.116;4.440;2023-04-01T04:57:28;6.95;;;1.65;;
77872;SDS011;67068;52.116;4.440;2023-04-01T04:59:53;5.97;;;1.50;;
77872;SDS011;67068;52.116;4.440;2023-04-01T05:02:19;7.47;;;1.80;;
77872;SDS011;67068;52.116;4.440;2023-04-01T05:04:44;7.47;;;1.83;;
77872;SDS011;67068;52.116;4.440;2023-04-01T05:07:09;5.37;;;1.60;;
77872;SDS011;67068;52.116;4.440;2023-04-01T05:09:35;5.85;;;1.55;;
77872;SDS011;67068;52.116;4.440;2023-04-01T05:12:00;5.77;;;1.40;;
77872;SDS011;67068;52.116;4.440;2023-04-01T05:14:25;7.00;;;1.20;;
77872;SDS011;67068;52.116;4.440;2023-04-01T05:16:50;7.30;;;1.47;;
77872;SDS011;67068;52.116;4.440;2023-04-01T05:19:16;6.77;;;1.77;;
77872;SDS011;67068;52.116;4.440;2023-04-01T05:21:41;4.27;;;1.10;;
77872;SDS011;67068;52.116;4.440;2023-04-01T05:24:09;6.60;;;1.50;;
77872;SDS011;67068;52.116;4.440;2023-04-01T05:26:35;5.78;;;1.38;;
77872;SDS011;67068;52.116;4.440;2023-04-01T05:29:01;6.57;;;1.42;;
77872;SDS011;67068;52.116;4.440;2023-04-01T05:31:26;6.43;;;1.80;;
77872;SDS011;67068;52.116;4.440;2023-04-01T05:33:52;5.83;;;1.20;;
77872;SDS011;67068;52.116;4.440;2023-04-01T05:36:18;4.40;;;1.20;;
77872;SDS011;67068;52.116;4.440;2023-04-01T05:38:43;5.30;;;1.23;;
77872;SDS011;67068;52.116;4.440;2023-04-01T05:41:10;7.57;;;1.70;;
77872;SDS011;67068;52.116;4.440;2023-04-01T05:43:36;6.28;;;1.40;;
77872;SDS011;67068;52.116;4.440;2023-04-01T05:46:02;6.38;;;1.65;;
77872;SDS011;67068;52.116;4.440;2023-04-01T05:48:27;6.63;;;1.60;;
77872;SDS011;67068;52.116;4.440;2023-04-01T05:50:52;7.40;;;1.63;;
77872;SDS011;67068;52.116;4.440;2023-04-01T05:53:17;5.00;;;1.40;;
77872;SDS011;67068;52.116;4.440;2023-04-01T05:55:42;6.70;;;1.50;;
77872;SDS011;67068;52.116;4.440;2023-04-01T05:58:08;6.67;;;1.50;;
77872;SDS011;67068;52.116;4.440;2023-04-01T06:00:33;6.63;;;1.40;;
77872;SDS011;67068;52.116;4.440;2023-04-01T06:02:59;5.87;;;1.43;;
77872;SDS011;67068;52.116;4.440;2023-04-01T06:05:26;6.10;;;1.45;;
77872;SDS011;67068;52.116;4.440;2023-04-01T06:07:54;7.70;;;1.88;;
77872;SDS011;67068;52.116;4.440;2023-04-01T06:10:21;6.60;;;1.60;;
77872;SDS011;67068;52.116;4.440;2023-04-01T06:12:54;5.35;;;1.20;;
77872;SDS011;67068;52.116;4.440;2023-04-01T06:15:30;5.43;;;1.48;;
77872;SDS011;67068;52.116;4.440;2023-04-01T06:18:12;4.93;;;1.40;;
77872;SDS011;67068;52.116;4.440;2023-04-01T06:30:50;4.15;;;1.10;;
77872;SDS011;67068;52.116;4.440;2023-04-01T06:33:26;4.97;;;1.30;;
77872;SDS011;67068;52.116;4.440;2023-04-01T06:46:38;6.78;;;1.70;;
77872;SDS011;67068;52.116;4.440;2023-04-01T06:54:31;5.88;;;1.33;;
77872;SDS011;67068;52.116;4.440;2023-04-01T06:57:01;5.93;;;1.65;;
77872;SDS011;67068;52.116;4.440;2023-04-01T06:59:31;6.40;;;1.45;;
77872;SDS011;67068;52.116;4.440;2023-04-01T07:04:35;5.85;;;1.38;;
77872;SDS011;67068;52.116;4.440;2023-04-01T07:09:31;5.17;;;1.30;;
77872;SDS011;67068;52.116;4.440;2023-04-01T07:11:59;4.75;;;1.20;;
77872;SDS011;67068;52.116;4.440;2023-04-01T07:14:27;4.50;;;1.20;;
77872;SDS011;67068;52.116;4.440;2023-04-01T07:17:02;5.93;;;1.40;;
77872;SDS011;67068;52.116;4.440;2023-04-01T07:19:33;5.40;;;1.50;;
77872;SDS011;67068;52.116;4.440;2023-04-01T07:22:05;4.85;;;1.38;;
77872;SDS011;67068;52.116;4.440;2023-04-01T07:24:34;5.63;;;1.40;;
77872;SDS011;67068;52.116;4.440;2023-04-01T07:27:01;4.53;;;1.40;;
77872;SDS011;67068;52.116;4.440;2023-04-01T07:29:27;5.10;;;1.33;;
77872;SDS011;67068;52.116;4.440;2023-04-01T07:32:04;5.60;;;1.35;;
77872;SDS011;67068;52.116;4.440;2023-04-01T07:37:00;5.07;;;1.45;;
77872;SDS011;67068;52.116;4.440;2023-04-01T07:39:40;4.43;;;1.17;;
77872;SDS011;67068;52.116;4.440;2023-04-01T07:42:21;5.25;;;1.35;;
77872;SDS011;67068;52.116;4.440;2023-04-01T07:44:53;5.57;;;1.20;;
77872;SDS011;67068;52.116;4.440;2023-04-01T08:07:40;5.60;;;1.55;;
77872;SDS011;67068;52.116;4.440;2023-04-01T08:10:11;6.65;;;1.50;;
77872;SDS011;67068;52.116;4.440;2023-04-01T08:12:46;4.68;;;1.40;;
77872;SDS011;67068;52.116;4.440;2023-04-01T08:15:32;5.38;;;1.40;;
77872;SDS011;67068;52.116;4.440;2023-04-01T08:20:46;5.57;;;1.38;;
77872;SDS011;67068;52.116;4.440;2023-04-01T08:23:17;6.75;;;1.52;;
77872;SDS011;67068;52.116;4.440;2023-04-01T08:25:54;7.80;;;1.70;;
77872;SDS011;67068;52.116;4.440;2023-04-01T08:28:27;7.53;;;1.88;;
77872;SDS011;67068;52.116;4.440;2023-04-01T08:33:38;6.32;;;2.08;;
77872;SDS011;67068;52.116;4.440;2023-04-01T08:36:15;6.47;;;1.63;;
77872;SDS011;67068;52.116;4.440;2023-04-01T08:38:52;5.53;;;1.65;;
77872;SDS011;67068;52.116;4.440;2023-04-01T08:41:27;6.50;;;1.98;;
77872;SDS011;67068;52.116;4.440;2023-04-01T08:49:08;7.32;;;1.77;;
77872;SDS011;67068;52.116;4.440;2023-04-01T09:08:02;7.30;;;1.70;;
77872;SDS011;67068;52.116;4.440;2023-04-01T09:26:18;8.35;;;1.75;;
77872;SDS011;67068;52.116;4.440;2023-04-01T09:29:05;7.75;;;2.03;;
77872;SDS011;67068;52.116;4.440;2023-04-01T09:34:14;8.30;;;1.93;;
77872;SDS011;67068;52.116;4.440;2023-04-01T09:36:47;7.38;;;1.90;;
77872;SDS011;67068;52.116;4.440;2023-04-01T09:39:24;8.07;;;2.25;;
77872;SDS011;67068;52.116;4.440;2023-04-01T09:44:32;8.20;;;1.88;;
77872;SDS011;67068;52.116;4.440;2023-04-01T10:11:23;8.83;;;2.23;;
77872;SDS011;67068;52.116;4.440;2023-04-01T10:16:22;8.40;;;2.40;;
77872;SDS011;67068;52.116;4.440;2023-04-01T10:42:35;10.43;;;3.40;;
77872;SDS011;67068;52.116;4.440;2023-04-01T10:48:19;10.27;;;2.97;;
77872;SDS011;67068;52.116;4.440;2023-04-01T10:56:04;9.27;;;3.08;;
77872;SDS011;67068;52.116;4.440;2023-04-01T11:03:55;8.25;;;2.75;;
77872;SDS011;67068;52.116;4.440;2023-04-01T11:12:11;9.27;;;3.05;;
77872;SDS011;67068;52.116;4.440;2023-04-01T11:18:08;8.00;;;2.72;;
77872;SDS011;67068;52.116;4.440;2023-04-01T11:33:28;9.07;;;2.85;;
77872;SDS011;67068;52.116;4.440;2023-04-01T11:41:24;8.60;;;3.03;;
77872;SDS011;67068;52.116;4.440;2023-04-01T11:46:31;10.80;;;3.30;;
77872;SDS011;67068;52.116;4.440;2023-04-01T12:06:32;8.63;;;2.63;;
77872;SDS011;67068;52.116;4.440;2023-04-01T12:21:37;7.70;;;2.50;;
77872;SDS011;67068;52.116;4.440;2023-04-01T12:31:31;7.65;;;2.42;;
77872;SDS011;67068;52.116;4.440;2023-04-01T12:41:53;8.25;;;2.67;;
77872;SDS011;67068;52.116;4.440;2023-04-01T12:47:51;7.95;;;2.70;;
77872;SDS011;67068;52.116;4.440;2023-04-01T13:12:49;7.95;;;2.40;;
77872;SDS011;67068;52.116;4.440;2023-04-01T13:22:48;7.28;;;1.90;;
77872;SDS011;67068;52.116;4.440;2023-04-01T13:27:46;6.93;;;2.00;;
77872;SDS011;67068;52.116;4.440;2023-04-01T13:35:23;7.63;;;1.88;;
77872;SDS011;67068;52.116;4.440;2023-04-01T13:37:58;5.60;;;1.58;;
77872;SDS011;67068;52.116;4.440;2023-04-01T13:40:30;5.55;;;1.80;;
77872;SDS011;67068;52.116;4.440;2023-04-01T13:43:14;6.95;;;1.80;;
77872;SDS011;67068;52.116;4.440;2023-04-01T13:48:29;6.95;;;2.03;;
77872;SDS011;67068;52.116;4.440;2023-04-01T14:06:30;6.57;;;1.80;;
77872;SDS011;67068;52.116;4.440;2023-04-01T14:09:42;7.15;;;1.80;;
77872;SDS011;67068;52.116;4.440;2023-04-01T14:16:55;6.53;;;1.90;;
77872;SDS011;67068;52.116;4.440;2023-04-01T14:45:37;7.68;;;1.45;;
77872;SDS011;67068;52.116;4.440;2023-04-01T14:50:53;6.38;;;1.50;;
77872;SDS011;67068;52.116;4.440;2023-04-01T14:55:48;8.20;;;1.53;;
77872;SDS011;67068;52.116;4.440;2023-04-01T14:58:15;6.70;;;1.95;;
77872;SDS011;67068;52.116;4.440;2023-04-01T15:03:15;6.25;;;1.77;;
77872;SDS011;67068;52.116;4.440;2023-04-01T15:08:29;6.25;;;1.50;;
77872;SDS011;67068;52.116;4.440;2023-04-01T15:21:48;6.75;;;1.45;;
77872;SDS011;67068;52.116;4.440;2023-04-01T15:24:19;8.27;;;1.60;;
77872;SDS011;67068;52.116;4.440;2023-04-01T15:42:28;8.00;;;1.83;;
77872;SDS011;67068;52.116;4.440;2023-04-01T16:07:38;13.57;;;4.32;;
77872;SDS011;67068;52.116;4.440;2023-04-01T16:12:54;11.18;;;2.58;;
77872;SDS011;67068;52.116;4.440;2023-04-01T16:20:24;11.33;;;2.33;;
77872;SDS011;67068;52.116;4.440;2023-04-01T16:23:04;9.52;;;2.20;;
77872;SDS011;67068;52.116;4.440;2023-04-01T16:33:00;9.60;;;2.67;;
77872;SDS011;67068;52.116;4.440;2023-04-01T16:51:11;6.20;;;1.75;;
77872;SDS011;67068;52.116;4.440;2023-04-01T16:53:42;7.18;;;1.67;;
77872;SDS011;67068;52.116;4.440;2023-04-01T17:01:36;9.15;;;1.77;;
77872;SDS011;67068;52.116;4.440;2023-04-01T17:04:06;6.95;;;1.60;;
77872;SDS011;67068;52.116;4.440;2023-04-01T17:11:49;8.35;;;1.80;;
77872;SDS011;67068;52.116;4.440;2023-04-01T17:14:21;6.63;;;1.60;;
77872;SDS011;67068;52.116;4.440;2023-04-01T17:30:24;6.10;;;1.50;;
77872;SDS011;67068;52.116;4.440;2023-04-01T17:35:19;6.25;;;1.65;;
77872;SDS011;67068;52.116;4.440;2023-04-01T17:37:55;4.97;;;1.23;;
77872;SDS011;67068;52.116;4.440;2023-04-01T17:40:31;4.93;;;1.25;;
77872;SDS011;67068;52.116;4.440;2023-04-01T17:43:12;5.78;;;1.55;;
77872;SDS011;67068;52.116;4.440;2023-04-01T17:48:08;5.03;;;1.20;;
77872;SDS011;67068;52.116;4.440;2023-04-01T17:56:17;9.75;;;4.53;;
77872;SDS011;67068;52.116;4.440;2023-04-01T17:58:53;9.38;;;3.03;;
77872;SDS011;67068;52.116;4.440;2023-04-01T18:09:25;9.77;;;2.33;;
77872;SDS011;67068;52.116;4.440;2023-04-01T18:22:15;7.65;;;2.10;;
77872;SDS011;67068;52.116;4.440;2023-04-01T18:24:54;6.00;;;1.95;;
77872;SDS011;67068;52.116;4.440;2023-04-01T18:37:59;4.95;;;1.40;;
77872;SDS011;67068;52.116;4.440;2023-04-01T18:40:39;6.03;;;1.77;;
77872;SDS011;67068;52.116;4.440;2023-04-01T18:45:58;6.25;;;1.95;;
77872;SDS011;67068;52.116;4.440;2023-04-01T18:51:13;4.45;;;1.23;;
77872;SDS011;67068;52.116;4.440;2023-04-01T18:53:41;4.07;;;1.35;;
77872;SDS011;67068;52.116;4.440;2023-04-01T18:59:00;5.07;;;1.30;;
77872;SDS011;67068;52.116;4.440;2023-04-01T19:01:36;4.07;;;1.13;;
77872;SDS011;67068;52.116;4.440;2023-04-01T19:04:07;5.20;;;1.50;;
77872;SDS011;67068;52.116;4.440;2023-04-01T19:09:17;4.63;;;1.30;;
77872;SDS011;67068;52.116;4.440;2023-04-01T19:14:19;4.93;;;1.08;;
77872;SDS011;67068;52.116;4.440;2023-04-01T19:24:51;5.80;;;2.90;;
77872;SDS011;67068;52.116;4.440;2023-04-01T19:27:29;6.05;;;2.30;;
77872;SDS011;67068;52.116;4.440;2023-04-01T19:38:11;5.55;;;1.90;;
77872;SDS011;67068;52.116;4.440;2023-04-01T19:51:03;4.03;;;1.70;;
77872;SDS011;67068;52.116;4.440;2023-04-01T19:56:01;4.13;;;1.60;;
77872;SDS011;67068;52.116;4.440;2023-04-01T19:58:39;4.60;;;1.80;;
77872;SDS011;67068;52.116;4.440;2023-04-01T20:01:06;3.53;;;1.50;;
77872;SDS011;67068;52.116;4.440;2023-04-01T20:03:46;5.25;;;2.10;;
77872;SDS011;67068;52.116;4.440;2023-04-01T20:06:24;4.68;;;1.60;;
77872;SDS011;67068;52.116;4.440;2023-04-01T20:11:23;4.22;;;1.50;;
77872;SDS011;67068;52.116;4.440;2023-04-01T20:16:18;5.15;;;1.40;;
77872;SDS011;67068;52.116;4.440;2023-04-01T20:18:59;4.40;;;1.40;;
77872;SDS011;67068;52.116;4.440;2023-04-01T20:24:01;4.43;;;1.65;;
77872;SDS011;67068;52.116;4.440;2023-04-01T20:26:32;4.55;;;1.52;;
77872;SDS011;67068;52.116;4.440;2023-04-01T20:31:48;4.63;;;1.80;;
77872;SDS011;67068;52.116;4.440;2023-04-01T20:34:20;3.20;;;1.42;;
77872;SDS011;67068;52.116;4.440;2023-04-01T20:36:58;6.32;;;1.98;;
77872;SDS011;67068;52.116;4.440;2023-04-01T20:42:07;4.47;;;1.52;;
77872;SDS011;67068;52.116;4.440;2023-04-01T20:44:50;39.85;;;11.10;;
77872;SDS011;67068;52.116;4.440;2023-04-01T20:52:49;23.25;;;6.57;;
77872;SDS011;67068;52.116;4.440;2023-04-01T21:00:27;18.55;;;4.43;;
77872;SDS011;67068;52.116;4.440;2023-04-01T21:03:05;15.82;;;4.50;;
77872;SDS011;67068;52.116;4.440;2023-04-01T21:10:37;18.50;;;3.45;;
77872;SDS011;67068;52.116;4.440;2023-04-01T21:15:56;15.73;;;2.97;;
77872;SDS011;67068;52.116;4.440;2023-04-01T21:20:49;10.87;;;3.03;;
77872;SDS011;67068;52.116;4.440;2023-04-01T21:26:09;11.50;;;3.25;;
77872;SDS011;67068;52.116;4.440;2023-04-01T21:31:32;12.70;;;3.20;;
77872;SDS011;67068;52.116;4.440;2023-04-01T21:42:05;11.50;;;2.70;;
77872;SDS011;67068;52.116;4.440;2023-04-01T21:44:43;10.15;;;2.88;;
77872;SDS011;67068;52.116;4.440;2023-04-01T22:02:52;11.32;;;2.47;;
77872;SDS011;67068;52.116;4.440;2023-04-01T22:10:28;7.90;;;2.33;;
77872;SDS011;67068;52.116;4.440;2023-04-01T22:18:18;7.60;;;1.95;;
77872;SDS011;67068;52.116;4.440;2023-04-01T22:20:53;7.35;;;2.00;;
77872;SDS011;67068;52.116;4.440;2023-04-01T22:30:49;8.60;;;2.20;;
77872;SDS011;67068;52.116;4.440;2023-04-01T22:33:21;6.05;;;1.77;;
77872;SDS011;67068;52.116;4.440;2023-04-01T22:36:06;8.00;;;1.92;;
77872;SDS011;67068;52.116;4.440;2023-04-01T22:41:19;7.80;;;2.10;;
77872;SDS011;67068;52.116;4.440;2023-04-01T22:43:48;8.20;;;2.08;;
77872;SDS011;67068;52.116;4.440;2023-04-01T22:51:47;5.40;;;1.90;;
77872;SDS011;67068;52.116;4.440;2023-04-01T22:56:45;6.10;;;1.65;;
77872;SDS011;67068;52.116;4.440;2023-04-01T22:59:17;7.78;;;2.13;;
77872;SDS011;67068;52.116;4.440;2023-04-01T23:01:47;6.20;;;1.73;;
77872;SDS011;67068;52.116;4.440;2023-04-01T23:04:15;7.68;;;1.90;;
77872;SDS011;67068;52.116;4.440;2023-04-01T23:06:42;6.70;;;1.98;;
77872;SDS011;67068;52.116;4.440;2023-04-01T23:09:10;6.72;;;2.15;;
77872;SDS011;67068;52.116;4.440;2023-04-01T23:16:43;6.28;;;1.95;;
77872;SDS011;67068;52.116;4.440;2023-04-01T23:19:19;7.63;;;2.00;;
77872;SDS011;67068;52.116;4.440;2023-04-01T23:21:54;6.40;;;2.05;;
77872;SDS011;67068;52.116;4.440;2023-04-01T23:24:30;6.65;;;2.03;;
77872;SDS011;67068;52.116;4.440;2023-04-01T23:27:05;7.72;;;2.05;;
77872;SDS011;67068;52.116;4.440;2023-04-01T23:29:30;6.90;;;2.10;;
77872;SDS011;67068;52.116;4.440;2023-04-01T23:32:00;6.32;;;2.15;;
77872;SDS011;67068;52.116;4.440;2023-04-01T23:39:49;7.60;;;1.90;;
77872;SDS011;67068;52.116;4.440;2023-04-01T23:47:22;7.40;;;2.60;;
77872;SDS011;67068;52.116;4.440;2023-04-01T23:49:50;6.57;;;1.88;;
77872;SDS011;67068;52.116;4.440;2023-04-01T23:52:19;7.97;;;2.60;;
77872;SDS011;67068;52.116;4.440;2023-04-01T23:57:11;7.83;;;2.20;;
77872;SDS011;67068;52.116;4.440;2023-04-01T23:59:37;8.80;;;2.63;;
